x

Ne Burgeo Bank (44255) Wave Buoy

8:00am - Mon 22nd Dec 2014 All times are AST. -4 hours from GMT.

  • Sig Wave height 1.3ft
  • Peak Period 8s
  • Wind
    9mph, 13mph gusts
  • Sea Temp 41°f
  • Air Temp 30°f
  • Sea Pressure 1030mb
  • Ne Burgeo Bank
  • Ne Burgeo Bank

More Historic Weather Station data

Upgrade to MSW Pro to gain access to the past 30 days of data for over 8000 Wavebouys and Weather Stations around the globe.

Join Pro

Comparision Forecast

View Surf forecast
   
Mon 12/22 8:00am 1.3ft 8s 9 13 mph 1030mb 41f 30f
7:00am 1.3ft 8s 7 11 mph 1029.3mb 41f 29f
6:00am 1.3ft 9s 7 11 mph 1029.1mb 41f 29f
5:00am 1.6ft 9s 4 9 mph 1028.9mb 41f 29f
4:00am 1.6ft 9s 4 7 mph 1029.1mb 41f 28f
3:00am 1.6ft 8s 2 9 mph 1029mb 41f 28f
2:00am 1.6ft 8s 7 9 mph 1028.6mb 41f 28f
1:00am 1.6ft 8s 7 9 mph 1028.3mb 41f 28f
12:00am 2ft 9s 4 7 mph 1028.5mb 41f 28f
Sun 12/21 11:00pm 2ft 9s 7 9 mph 1028.4mb 41f 28f
10:00pm 2ft 8s 7 11 mph 1028.4mb 41f 29f
9:00pm 1.6ft 8s 7 11 mph 1028mb 41f 29f
8:00pm 2ft 9s 7 9 mph 1027.8mb 41f 29f
7:00pm 2ft 8s 7 9 mph 1027.6mb 41f 29f
6:00pm 2ft 9s 7 11 mph 1027.4mb 42f 30f
5:00pm 2ft 9s 9 13 mph 1027.3mb 42f 29f
4:00pm 2ft 10s 9 16 mph 1027.2mb 42f 28f
3:00pm 2.5ft 9s 9 13 mph 1027.2mb 42f 28f
2:00pm 2ft 9s 9 16 mph 1026.7mb 42f 28f
1:00pm 2ft 9s 9 13 mph 1026.8mb 42f 29f
12:00pm 2ft 9s 9 13 mph 1026.9mb 42f 29f
11:00am 2ft 10s 4 9 mph 1027.4mb 42f 30f
10:00am 2ft 10s 9 13 mph 1027.8mb 42f 31f
9:00am 2ft 10s 9 13 mph 1027.4mb 42f 31f
8:00am 2.5ft 9s 9 13 mph 1027mb 42f 31f
7:00am 2.5ft 9s 7 11 mph 1026.7mb 41f 32f
6:00am 2.5ft 10s 7 9 mph 1026.4mb 41f 32f
5:00am 2.5ft 10s 9 11 mph 1026.1mb 41f 33f
4:00am 2.5ft 10s 4 9 mph 1026.2mb 41f 33f
3:00am 2.5ft 10s 2 4 mph 1026.1mb 41f 32f
2:00am 2.5ft 10s 9 11 mph 1025.8mb 41f 33f
1:00am 3ft 10s 9 13 mph 1025.5mb 42f 33f
12:00am 3ft 9s 11 16 mph 1025.5mb 42f 33f
Sat 12/20 11:00pm 3.5ft 10s 9 16 mph 1025.8mb 41f 33f
10:00pm 3.5ft 10s 9 13 mph 1025.7mb 41f 33f
9:00pm 3.5ft 10s 11 16 mph 1025.6mb 41f 33f
8:00pm 3.5ft 10s 13 18 mph 1025.5mb 41f 33f
7:00pm 4ft 10s 9 20 mph 1025.1mb 41f 34f
6:00pm 4ft 10s 16 18 mph 1024.6mb 41f 34f
5:00pm 4.5ft 10s 11 16 mph 1024.2mb 41f 34f
4:00pm 4.5ft 10s 13 16 mph 1023.8mb 41f 34f
3:00pm 5ft 6s 13 18 mph 1023.2mb 41f 34f
2:00pm 5.5ft 10s 18 22 mph 1022.3mb 41f 34f
1:00pm 5.5ft  -  20 25 mph 1021.8mb 41f 34f
12:00pm 6ft 10s 18 27 mph 1021.5mb 41f 35f
11:00am 6ft 6s 18 22 mph 1021.8mb 41f 35f
10:00am 7ft 6s 20 25 mph 1021.7mb 41f 35f
9:00am 7ft 10s 20 27 mph 1020.8mb 41f 35f
8:00am 7ft 11s 22 29 mph 1019.5mb 41f 35f
7:00am 8ft 6s 25 29 mph 1018.5mb 41f 35f
6:00am 8ft 10s 27 34 mph 1017.2mb 41f 35f
5:00am 7.5ft 9s 27 36 mph 1015.9mb 41f 35f
3:00am  -   -  27
mph
1014mb 40f 36f
2:00am 8ft 11s 27 31 mph 1013mb 40f 37f
1:00am  -   -  25
mph
1011.7mb 40f 36f
12:00am 8.5ft 9s 27 34 mph 1010.2mb 40f 36f
Fri 12/19 11:00pm 8ft 8s 29 36 mph 1009.2mb 40f 36f
10:00pm 8.5ft 10s 29
mph
1007.8mb 40f 35f
9:00pm  -   -  25
mph
- - 28f
8:00pm 8.5ft 10s 2 4 mph 1004.9mb 40f 38f
7:00pm 8.5ft 9s 11 13 mph 1003.1mb 41f 38f
6:00pm 8ft 9s 16 20 mph 1001.7mb 41f 38f
5:00pm 8.5ft 11s 18 20 mph 1000.6mb 41f 39f
4:00pm 8.5ft 10s 20 22 mph 999.2mb 41f 39f
3:00pm 8.5ft 10s 22 27 mph 998.2mb 42f 39f
2:00pm 8.5ft 10s 22 25 mph 997mb 42f 40f
1:00pm 9ft 10s 22 29 mph 996.7mb 42f 39f
12:00pm 9ft 10s 27 31 mph 996.3mb 42f 39f
11:00am 8.5ft 10s 27 31 mph 996.2mb 42f 40f
10:00am 8ft 8s 27 31 mph 996mb 42f 40f
9:00am 7.5ft 8s 22 27 mph 995.4mb 42f 40f
8:00am 7ft 8s 22 27 mph 994.7mb 42f 40f
7:00am 7ft 8s 16 18 mph 994.2mb 42f 40f
4:00am 6.5ft 8s 11 13 mph 993mb 42f 42f
1:00am 6ft 9s 13 16 mph 995.4mb 42f 42f
12:00am 6ft 10s 9 11 mph 997.4mb 42f 42f
Thu 12/18 11:00pm 6ft 8s 11 13 mph 998.7mb 42f 41f
10:00pm 6ft 8s 13 16 mph 999.1mb 42f 41f
7:00pm 7ft 8s 9 11 mph 1001.8mb 42f 42f
6:00pm 7.5ft 8s 9 11 mph 1001.9mb 42f 42f
4:00pm 8ft 7s 13 16 mph 1002.4mb 42f 43f
3:00pm 8.5ft 6s 20 25 mph 1002.3mb 42f 43f
2:00pm 8.5ft 7s 27 31 mph 1002.5mb 42f 43f